createdAt,value
2018-09-28T00:00:11.333Z,10.50
2018-09-28T00:02:40.151Z,10.40
2018-09-28T00:07:37.673Z,10.10
2018-09-28T00:17:33.293Z,10.10
2018-09-28T00:20:02.317Z,9.70
2018-09-28T00:27:28.245Z,9.80
2018-09-28T00:32:27.674Z,9.50
2018-09-28T00:34:56.684Z,9.40
2018-09-28T00:42:22.657Z,9.70
2018-09-28T00:47:21.105Z,10.20
2018-09-28T00:49:51.123Z,10.20
2018-09-28T00:52:20.043Z,10.20
2018-09-28T00:54:49.047Z,10.20
2018-09-28T01:04:43.640Z,10.80
2018-09-28T01:09:42.187Z,10.50
2018-09-28T01:14:39.633Z,10.50
2018-09-28T01:17:08.549Z,10.20
2018-09-28T01:39:30.599Z,11.00
2018-09-28T01:44:28.098Z,11.30
2018-09-28T01:46:57.023Z,11.40
2018-09-28T01:49:26.105Z,11.50
2018-09-28T01:59:20.968Z,12.00
2018-09-28T02:01:49.852Z,11.90
2018-09-28T02:06:47.368Z,12.00
2018-09-28T02:16:42.054Z,11.60
2018-09-28T02:19:11.134Z,12.30
2018-09-28T02:24:08.735Z,12.60
2018-09-28T02:26:37.659Z,12.00
2018-09-28T02:29:07.710Z,12.30
2018-09-28T02:31:36.911Z,12.40
2018-09-28T02:39:03.676Z,12.00
2018-09-28T02:51:27.983Z,12.00
2018-09-28T02:53:57.023Z,12.10
2018-09-28T02:56:25.928Z,12.20
2018-09-28T02:58:55.982Z,12.40
2018-09-28T03:01:25.083Z,12.40
2018-09-28T03:06:22.712Z,12.20
2018-09-28T03:13:48.781Z,11.70
2018-09-28T03:36:09.621Z,12.00
2018-09-28T03:38:38.522Z,12.10
2018-09-28T03:41:07.594Z,12.10
2018-09-28T03:48:34.595Z,11.90
2018-09-28T03:56:01.936Z,12.10
2018-09-28T03:58:30.845Z,12.30
2018-09-28T04:05:57.963Z,11.80
2018-09-28T04:08:26.870Z,11.90
2018-09-28T04:10:55.896Z,12.20
2018-09-28T04:15:54.424Z,11.80
2018-09-28T04:20:52.037Z,12.00
2018-09-28T04:23:20.970Z,12.30
2018-09-28T04:28:18.481Z,12.30
2018-09-28T04:30:47.528Z,12.00
2018-09-28T04:35:46.073Z,12.10
2018-09-28T04:40:43.624Z,12.00
2018-09-28T04:45:41.289Z,12.00
2018-09-28T04:48:10.129Z,12.10
2018-09-28T04:55:38.385Z,12.20
2018-09-28T05:03:04.401Z,12.30
2018-09-28T05:08:01.875Z,12.20
2018-09-28T05:12:59.400Z,12.20
2018-09-28T05:15:28.347Z,12.10
2018-09-28T05:17:57.293Z,11.80
2018-09-28T05:20:27.291Z,12.40
2018-09-28T05:25:24.846Z,12.40
2018-09-28T05:42:46.408Z,12.10
2018-09-28T05:50:12.441Z,12.50
2018-09-28T05:57:40.069Z,12.40
2018-09-28T06:00:14.219Z,12.60
2018-09-28T06:10:19.569Z,13.00
2018-09-28T06:17:45.911Z,12.50
2018-09-28T06:20:16.006Z,12.30
2018-09-28T06:22:44.871Z,12.60
2018-09-28T06:25:13.932Z,12.40
2018-09-28T06:27:42.865Z,13.00
2018-09-28T06:30:11.980Z,12.50
2018-09-28T06:42:37.372Z,12.30
2018-09-28T06:50:04.668Z,12.60
2018-09-28T06:55:02.928Z,13.40
2018-09-28T06:57:31.859Z,12.70
2018-09-28T07:04:59.058Z,12.80
2018-09-28T07:17:22.311Z,12.70
2018-09-28T07:24:49.482Z,12.80
2018-09-28T07:32:16.511Z,13.00
2018-09-28T07:39:43.789Z,13.30
2018-09-28T07:44:41.471Z,13.40
2018-09-28T07:47:10.337Z,13.00
2018-09-28T07:52:08.907Z,13.10
2018-09-28T07:59:35.079Z,13.30
2018-09-28T08:02:03.998Z,13.30
2018-09-28T08:04:33.140Z,12.80
2018-09-28T08:12:00.189Z,13.50
2018-09-28T08:19:26.481Z,13.70
2018-09-28T08:36:47.987Z,13.50
2018-09-28T08:44:19.313Z,13.20
2018-09-28T08:54:15.460Z,14.00
2018-09-28T09:04:10.293Z,14.20
2018-09-28T09:09:10.398Z,15.00
2018-09-28T09:11:39.260Z,14.30
2018-09-28T09:14:08.588Z,14.80
2018-09-28T09:16:37.535Z,14.40
2018-09-28T09:19:06.651Z,15.10
2018-09-28T09:24:04.203Z,15.30
2018-09-28T09:26:33.136Z,14.70
2018-09-28T09:29:02.305Z,14.00
2018-09-28T09:41:27.536Z,15.30
2018-09-28T09:46:25.107Z,15.40
2018-09-28T10:01:22.195Z,16.40
2018-09-28T10:03:51.928Z,15.90
2018-09-28T10:06:21.014Z,15.70
2018-09-28T10:08:49.860Z,15.40
2018-09-28T10:11:18.917Z,16.00
2018-09-28T10:16:16.497Z,15.80
2018-09-28T10:18:45.453Z,15.80
2018-09-28T10:21:14.518Z,15.50
2018-09-28T10:26:12.064Z,16.50
2018-09-28T10:36:06.892Z,15.40
2018-09-28T10:38:35.736Z,15.80
2018-09-28T10:43:33.332Z,15.80
2018-09-28T10:46:03.422Z,16.00
2018-09-28T10:55:58.208Z,15.90
2018-09-28T10:58:27.176Z,16.70
2018-09-28T11:05:53.371Z,16.50
2018-09-28T11:13:20.436Z,15.90
2018-09-28T11:15:51.660Z,15.60
2018-09-28T11:18:20.501Z,16.30
2018-09-28T11:20:50.623Z,17.30
2018-09-28T11:25:50.207Z,16.40
2018-09-28T11:28:19.084Z,17.10
2018-09-28T11:30:48.084Z,16.50
2018-09-28T11:33:17.107Z,16.50
2018-09-28T11:40:44.266Z,16.40
2018-09-28T11:45:41.872Z,16.30
2018-09-28T11:48:10.835Z,16.40
2018-09-28T11:50:39.854Z,16.10
2018-09-28T11:53:08.880Z,15.80
2018-09-28T12:05:36.166Z,16.80
2018-09-28T12:25:37.730Z,17.80
2018-09-28T12:30:47.572Z,17.70
2018-09-28T12:33:16.556Z,17.60
2018-09-28T12:35:53.494Z,17.80
2018-09-28T12:38:22.530Z,17.60
2018-09-28T12:40:51.547Z,17.10
2018-09-28T12:45:50.029Z,16.90
2018-09-28T12:48:19.132Z,17.00
2018-09-28T12:50:48.220Z,17.20
2018-09-28T13:10:44.873Z,17.20
2018-09-28T13:18:11.940Z,17.10
2018-09-28T13:20:41.006Z,17.10
2018-09-28T13:25:40.786Z,17.00
2018-09-28T13:33:06.798Z,16.30
2018-09-28T13:38:04.458Z,15.80
2018-09-28T13:40:33.558Z,15.60
2018-09-28T13:43:02.434Z,15.30
2018-09-28T13:45:31.596Z,15.90
2018-09-28T13:55:26.327Z,17.40
2018-09-28T14:02:52.390Z,16.80
2018-09-28T14:05:21.378Z,17.80
2018-09-28T14:10:19.018Z,20.00
2018-09-28T14:12:48.029Z,20.00
2018-09-28T14:27:40.661Z,16.80
2018-09-28T14:32:38.299Z,16.20
2018-09-28T14:35:07.288Z,15.90
2018-09-28T14:37:36.231Z,15.90
2018-09-28T14:40:05.388Z,16.20
2018-09-28T14:47:31.469Z,15.70
2018-09-28T14:53:47.771Z,17.10
2018-09-28T14:56:17.057Z,17.50
2018-09-28T14:58:46.157Z,17.30
2018-09-28T15:01:15.113Z,16.70
2018-09-28T15:03:44.150Z,16.30
2018-09-28T15:06:13.083Z,16.10
2018-09-28T15:08:42.270Z,16.10
2018-09-28T15:11:11.176Z,16.30
2018-09-28T15:13:43.723Z,16.30
2018-09-28T15:16:12.691Z,16.00
2018-09-28T15:18:41.855Z,16.00
2018-09-28T15:21:10.701Z,16.40
2018-09-28T15:23:39.756Z,17.20
2018-09-28T15:26:09.287Z,17.70
2018-09-28T15:28:38.410Z,17.30
2018-09-28T15:31:07.862Z,16.70
2018-09-28T15:33:37.102Z,16.30
2018-09-28T15:36:06.530Z,16.10
2018-09-28T15:38:35.581Z,16.20
2018-09-28T15:41:04.492Z,16.80
2018-09-28T15:43:33.542Z,17.00
2018-09-28T15:46:02.410Z,16.80
2018-09-28T15:48:31.435Z,17.00
2018-09-28T15:51:00.407Z,16.90
2018-09-28T15:53:29.534Z,17.00
2018-09-28T15:55:58.906Z,17.00
2018-09-28T15:58:27.982Z,16.60
2018-09-28T16:00:56.892Z,16.50
2018-09-28T16:03:25.874Z,16.20
2018-09-28T16:05:54.798Z,16.10
2018-09-28T16:08:23.785Z,15.80
2018-09-28T16:10:52.665Z,15.80
2018-09-28T16:13:21.660Z,15.50
2018-09-28T16:15:50.926Z,15.50
2018-09-28T16:18:19.887Z,15.40
2018-09-28T16:20:48.778Z,15.20
2018-09-28T16:23:17.798Z,15.10
2018-09-28T16:25:50.231Z,15.00
2018-09-28T16:31:22.958Z,14.80
2018-09-28T16:33:52.104Z,14.60
2018-09-28T16:36:22.601Z,14.50
2018-09-28T16:38:55.533Z,14.40
2018-09-28T16:41:25.228Z,14.40
2018-09-28T16:43:54.160Z,14.20
2018-09-28T16:46:23.105Z,14.10
2018-09-28T16:48:52.118Z,14.00
2018-09-28T16:51:20.960Z,13.90
2018-09-28T16:53:51.093Z,13.80
2018-09-28T16:56:20.032Z,13.70
2018-09-28T16:58:49.027Z,13.70
2018-09-28T17:01:17.905Z,13.60
2018-09-28T17:03:46.833Z,13.50
2018-09-28T17:06:15.669Z,13.40
2018-09-28T17:08:46.671Z,13.30
2018-09-28T17:11:15.548Z,13.20
2018-09-28T17:13:46.603Z,13.10
2018-09-28T17:16:15.496Z,13.10
2018-09-28T17:18:44.724Z,13.00
2018-09-28T17:21:13.565Z,12.90
2018-09-28T17:23:42.639Z,12.80
2018-09-28T17:26:11.597Z,12.80
2018-09-28T17:28:41.671Z,12.70
2018-09-28T17:31:10.547Z,12.60
2018-09-28T17:33:40.028Z,12.50
2018-09-28T17:36:08.921Z,12.50
2018-09-28T17:38:37.923Z,12.40
2018-09-28T17:41:06.983Z,12.40
2018-09-28T17:43:36.637Z,12.30
2018-09-28T17:46:06.903Z,12.30
2018-09-28T17:48:36.103Z,12.20
2018-09-28T17:51:05.436Z,12.20
2018-09-28T17:53:34.302Z,12.10
2018-09-28T17:56:03.482Z,12.00
2018-09-28T17:58:32.487Z,12.00
2018-09-28T18:01:03.663Z,12.00
2018-09-28T18:03:32.507Z,11.90
2018-09-28T18:06:01.627Z,11.90
2018-09-28T18:08:30.509Z,11.90
2018-09-28T18:10:59.586Z,11.80
2018-09-28T18:13:28.480Z,11.80
2018-09-28T18:15:58.626Z,11.80
2018-09-28T18:18:27.495Z,11.70
2018-09-28T18:20:58.666Z,11.70
2018-09-28T18:23:27.653Z,11.70
2018-09-28T18:25:58.729Z,11.60
2018-09-28T18:28:27.643Z,11.60
2018-09-28T18:30:57.648Z,11.50
2018-09-28T18:33:26.650Z,11.50
2018-09-28T18:35:55.776Z,11.50
2018-09-28T18:38:24.706Z,11.40
2018-09-28T18:40:53.761Z,11.40
2018-09-28T18:43:23.340Z,11.40
2018-09-28T18:45:52.818Z,11.30
2018-09-28T18:48:21.825Z,11.20
2018-09-28T18:50:50.836Z,11.20
2018-09-28T18:53:19.961Z,11.20
2018-09-28T18:55:49.054Z,11.20
2018-09-28T18:58:17.993Z,11.10
2018-09-28T19:00:47.005Z,11.10
2018-09-28T19:03:16.216Z,11.10
2018-09-28T19:05:45.424Z,11.10
2018-09-28T19:08:14.336Z,11.00
2018-09-28T19:10:43.407Z,11.00
2018-09-28T19:13:12.335Z,11.00
2018-09-28T19:15:41.391Z,10.90
2018-09-28T19:18:10.281Z,10.90
2018-09-28T19:20:40.919Z,10.90
2018-09-28T19:23:10.638Z,10.90
2018-09-28T19:25:39.830Z,10.80
2018-09-28T19:28:08.772Z,10.80
2018-09-28T19:30:37.824Z,10.80
2018-09-28T19:33:06.685Z,10.70
2018-09-28T19:35:39.387Z,10.70
2018-09-28T19:38:08.302Z,10.60
2018-09-28T19:40:37.336Z,10.50
2018-09-28T19:43:06.245Z,10.50
2018-09-28T19:45:35.491Z,10.40
2018-09-28T19:48:04.394Z,10.30
2018-09-28T19:50:33.432Z,10.20
2018-09-28T19:53:02.475Z,10.10
2018-09-28T19:55:31.523Z,10.00
2018-09-28T19:58:00.492Z,9.90
2018-09-28T20:00:29.898Z,9.80
2018-09-28T20:02:58.856Z,9.70
2018-09-28T20:05:27.856Z,9.60
2018-09-28T20:07:57.103Z,9.50
2018-09-28T20:10:26.141Z,9.50
2018-09-28T20:12:54.976Z,9.40
2018-09-28T20:15:24.326Z,9.40
2018-09-28T20:17:53.202Z,9.30
2018-09-28T20:20:22.189Z,9.30
2018-09-28T20:22:51.105Z,9.30
2018-09-28T20:25:20.125Z,9.20
2018-09-28T20:27:49.008Z,9.20
2018-09-28T20:30:18.239Z,9.20
2018-09-28T20:32:47.159Z,9.00
2018-09-28T20:35:16.173Z,9.00
2018-09-28T20:37:45.082Z,8.90
2018-09-28T20:40:14.077Z,8.90
2018-09-28T20:42:42.956Z,8.80
2018-09-28T20:45:12.026Z,8.80
2018-09-28T20:47:40.931Z,8.70
2018-09-28T20:50:09.943Z,8.70
2018-09-28T20:52:38.841Z,8.60
2018-09-28T20:55:07.904Z,8.50
2018-09-28T20:57:36.780Z,8.50
2018-09-28T21:00:06.017Z,8.50
2018-09-28T21:02:34.888Z,8.40
2018-09-28T21:05:03.994Z,8.40
2018-09-28T21:07:32.924Z,8.40
2018-09-28T21:10:02.018Z,8.30
2018-09-28T21:12:30.859Z,8.30
2018-09-28T21:14:59.879Z,8.30
2018-09-28T21:17:29.301Z,8.20
2018-09-28T21:19:58.446Z,8.20
2018-09-28T21:22:27.330Z,8.20
2018-09-28T21:24:56.521Z,8.20
2018-09-28T21:27:25.450Z,8.10
2018-09-28T21:29:54.984Z,8.10
2018-09-28T21:32:27.863Z,8.10
2018-09-28T21:34:58.680Z,8.10
2018-09-28T21:37:27.937Z,8.00
2018-09-28T21:39:56.972Z,8.00
2018-09-28T21:42:25.892Z,8.00
2018-09-28T21:44:55.926Z,8.00
2018-09-28T21:47:24.828Z,8.00
2018-09-28T21:49:55.838Z,8.00
2018-09-28T21:52:24.984Z,8.00
2018-09-28T21:54:54.008Z,8.10
2018-09-28T21:57:22.908Z,8.10
2018-09-28T21:59:52.933Z,8.10
2018-09-28T22:02:21.847Z,8.10
2018-09-28T22:04:53.161Z,8.00
2018-09-28T22:07:22.075Z,8.00
2018-09-28T22:09:51.144Z,8.00
2018-09-28T22:12:20.070Z,8.00
2018-09-28T22:14:49.135Z,7.90
2018-09-28T22:17:18.008Z,7.90
2018-09-28T22:19:47.019Z,7.80
2018-09-28T22:22:15.910Z,7.60
2018-09-28T22:24:44.930Z,7.50
2018-09-28T22:27:13.836Z,7.40
2018-09-28T22:29:42.873Z,7.30
2018-09-28T22:32:11.725Z,7.30
2018-09-28T22:34:40.824Z,7.20
2018-09-28T22:37:09.746Z,7.10
2018-09-28T22:39:38.776Z,7.00
2018-09-28T22:42:07.663Z,7.00
2018-09-28T22:44:37.720Z,7.00
2018-09-28T22:47:06.685Z,6.90
2018-09-28T22:49:35.722Z,6.80
2018-09-28T22:52:04.633Z,6.80
2018-09-28T22:54:33.617Z,6.80
2018-09-28T22:57:02.504Z,6.70
2018-09-28T22:59:31.547Z,6.70
2018-09-28T23:02:00.534Z,6.60
2018-09-28T23:04:29.610Z,6.60
2018-09-28T23:06:58.476Z,6.60
2018-09-28T23:09:28.570Z,6.60
2018-09-28T23:11:57.434Z,6.50
2018-09-28T23:14:26.510Z,6.50
2018-09-28T23:16:55.400Z,6.40
2018-09-28T23:19:24.462Z,6.40
2018-09-28T23:21:53.458Z,6.40
2018-09-28T23:24:22.576Z,6.30
2018-09-28T23:26:51.437Z,6.30
2018-09-28T23:29:22.511Z,6.20
2018-09-28T23:31:51.394Z,6.20
2018-09-28T23:34:20.421Z,6.20
2018-09-28T23:36:49.277Z,6.10
2018-09-28T23:39:18.267Z,6.10
2018-09-28T23:41:47.189Z,6.10
2018-09-28T23:44:16.330Z,6.00
2018-09-28T23:46:45.199Z,6.00
2018-09-28T23:49:15.261Z,6.00
2018-09-28T23:51:44.181Z,6.00
2018-09-28T23:54:13.212Z,5.90
2018-09-28T23:56:42.101Z,6.00
2018-09-28T23:59:11.182Z,5.90
